Strona główna
METAR-TAF:

METAR-TAF

Lotnisko :

Port lotniczy Bintulu

Bintulu, Malezja

Szerokość geograficzna: 03-12N, Długość geograficzna: 113-02E, wysokość: 2 m

Aktualna obserwacja pogody

Raport powstał 58 minut temu, godzina 13:00 UTC
Cisza
Temperatura 27°C
Wilgotność 89%
Ciśnienie 1009 hPa
Widzialność 10 km lub więcej
Mało chmury na wysokości 1600 ft
Przerywane chmury na wysokości 30000 ft

METAR: WBGB 211300Z 00000KT 9999 FEW016 BKN300 27/25 Q1009

czas: 21:58 (13:58 UTC)

Prognoza

Raport powstał 2 godziny i 58 minut temu, godzina 11:00 UTC
Prognoza ważna od 21 godzina 12 UTC do 22 godzina 12 UTC
Wiatr 3 kt z kierunków zmiennych
Widzialność 10 km lub więcej
Mało chmury na wysokości 1600 ft

TAF: WBGB 211100Z 2112/2212 VRB03KT 9999 FEW016

Obserwacja i prognoza pogody dla ponad 4000 lotnisk (raport METAR i TAF).

Dostępne stacje oznaczono żółtymi i czerwonymi punktami na mapie.

Najedź kursorem aby zobaczyć nazwę stacji.

Kliknij aby zobaczyć obserwacje i prognozy pogody.

Aby zmienić mapę: kliknij na zielony przycisk z czarnym krzyżykiem, aby powiększyć; na zielony przycisk z myślnikiem, aby pomniejszyć; na zielone strzałki, aby przejść do map sąsiednich.


METAR-TAF: